Aérodrome :
LOGIN :

S'inscrire | Disclaimer

   EN    FR    IT 

 










Légende :    VFR   VFR Marginal   IFR   IFR Intensif   IFR Très Intensif
Visi : 
Plafond : 
>= 8 km
>= 3000ft
5 à 8 km
1000 à 3000 ft
1500m à 5 km
500 à 1000 ft
800 à 1500m
200 à 500 ft
< 800m
< 200 ft
Symboles :   Orages  Brouillard  Fortes neiges  Fortes précipitations  Vent > 20 kt
SIGMETs :   Divers  Orages  Givrage  Turbulence  Onde Orograph.  Cendres Volcan.







- Altitude de l'aérodrome : 309 ft
- Code IATA : FNI
- Voir les cartes d'approche


LFTW - Nîmes Garons

DERNIER METAR :
  • 101400Z AUTO 36013KT CAVOK 13/03 Q1025 NOSIG

METARs EXPIRÉS :
  • 101330Z AUTO 34016G27KT 300V020 CAVOK 14/02 Q1025 BECMG 34012KT
  • 101300Z AUTO 35018KT CAVOK 14/02 Q1025 NOSIG
  • 101230Z AUTO 34018KT CAVOK 14/03 Q1026 NOSIG
  • 101200Z AUTO 36016KT CAVOK 14/02 Q1026 NOSIG
  • 101130Z AUTO 34016KT CAVOK 12/03 Q1026 NOSIG
  • 101100Z AUTO 34016KT 300V010 CAVOK 13/02 Q1026 NOSIG

TAF TAF LFTW
Valide du 10 à 09h jusqu'au 11 à 09h UTC


100800Z 1009/1109 34012KT CAVOK
Pas de NOTAMs connus pour ce terrain.
4 SIGMETs publiés pour la FIR Marseille (LFMM) :
 
Turbulence forte
LFMM SIGMET 9 VALID 101000/101400 LFPW
LFMM MARSEILLE FIR/UIR SEV TURB FCST WI N4015 E00430 - N4200 E00430 - N4215 E00230 - N4345 E00245 - N4500 E00445 - N4130 E00800 - N3915 E00800 - N4015 E00430 SFC/FL060 STNR NC=
Turbulence forte
LFMM SIGMET 12 VALID 101400/101800 LFPW
LFMM MARSEILLE FIR/UIR SEV TURB FCST WI N4630 E00600 - N4630 E00700 - N4400 E00700 - N4345 E00730 - N4315 E00600 - N4630 E00600 SFC/FL150 STNR NC=
Turbulence forte
LFMM SIGMET 11 VALID 101400/101800 LFPW
LFMM MARSEILLE FIR/UIR SEV TURB FCST WI N4015 E00430 - N4200 E00430 - N4215 E00230 - N4345 E00245 - N4500 E00500 - N4130 E00800 - N3915 E00800 - N4015 E00430 SFC/FL060 STNR NC=
Turbulence forte
LFMM SIGMET 10 VALID 101000/101400 LFPW
LFMM MARSEILLE FIR/UIR SEV TURB FCST WI N4630 E00600 - N4630 E00700 - N4400 E00700 - N4345 E00730 - N4315 E00600 - N4630 E00600 SFC/FL150 STNR NC=



MET'MAP, la Météo Aéronautique d'un coup d'oeil ! - Copyright ORBIFLY Décembre 2007 - Disclaimer

ORBIFLY MET'MAP TEAM :

Programmation & Développement : Alexandra Zaïnal
Conception & Développement : Baudouin d'Aumeries
Co-Programmation & Développement : Marc-Olivier Méhu
Soutien technique & logistique : Manuel Goepfert

Contact : metmap@orbifly.com




SOURCES & CREDITS :

   NOAA